sensor_id;sensor_type;location;lat;lon;timestamp;temperature;humidity
8539;DHT22;4307;53.868;11.680;2024-02-26T00:01:02;3.30;99.90
8539;DHT22;4307;53.868;11.680;2024-02-26T00:03:29;3.20;99.90
8539;DHT22;4307;53.868;11.680;2024-02-26T00:05:57;3.20;99.90
8539;DHT22;4307;53.868;11.680;2024-02-26T00:08:24;3.20;99.90
8539;DHT22;4307;53.868;11.680;2024-02-26T00:10:51;3.10;99.90
8539;DHT22;4307;53.868;11.680;2024-02-26T00:13:17;3.00;99.90
8539;DHT22;4307;53.868;11.680;2024-02-26T00:15:45;2.90;99.90
8539;DHT22;4307;53.868;11.680;2024-02-26T00:18:13;2.90;99.90
8539;DHT22;4307;53.868;11.680;2024-02-26T00:20:40;2.80;99.90
8539;DHT22;4307;53.868;11.680;2024-02-26T00:23:08;2.70;99.90
8539;DHT22;4307;53.868;11.680;2024-02-26T00:25:34;2.70;99.90
8539;DHT22;4307;53.868;11.680;2024-02-26T00:28:01;2.60;99.90
8539;DHT22;4307;53.868;11.680;2024-02-26T00:30:28;2.60;99.90
8539;DHT22;4307;53.868;11.680;2024-02-26T00:32:54;2.50;99.90
8539;DHT22;4307;53.868;11.680;2024-02-26T00:35:22;2.50;99.90
8539;DHT22;4307;53.868;11.680;2024-02-26T00:37:49;2.40;99.90
8539;DHT22;4307;53.868;11.680;2024-02-26T00:40:16;2.40;99.90
8539;DHT22;4307;53.868;11.680;2024-02-26T00:42:42;2.30;99.90
8539;DHT22;4307;53.868;11.680;2024-02-26T00:45:11;2.30;99.90
8539;DHT22;4307;53.868;11.680;2024-02-26T00:47:38;2.30;99.90
8539;DHT22;4307;53.868;11.680;2024-02-26T00:50:07;2.30;99.90
8539;DHT22;4307;53.868;11.680;2024-02-26T00:52:35;2.30;99.90
8539;DHT22;4307;53.868;11.680;2024-02-26T00:55:02;2.20;99.90
8539;DHT22;4307;53.868;11.680;2024-02-26T00:57:29;2.20;99.90
8539;DHT22;4307;53.868;11.680;2024-02-26T00:59:56;2.20;99.90
8539;DHT22;4307;53.868;11.680;2024-02-26T01:02:22;2.20;99.90
8539;DHT22;4307;53.868;11.680;2024-02-26T01:04:49;2.20;99.90
8539;DHT22;4307;53.868;11.680;2024-02-26T01:07:15;2.10;99.90
8539;DHT22;4307;53.868;11.680;2024-02-26T01:09:43;2.10;99.90
8539;DHT22;4307;53.868;11.680;2024-02-26T01:12:10;2.10;99.90
8539;DHT22;4307;53.868;11.680;2024-02-26T01:14:37;2.10;99.90
8539;DHT22;4307;53.868;11.680;2024-02-26T01:17:03;2.00;99.90
8539;DHT22;4307;53.868;11.680;2024-02-26T01:19:30;2.00;99.90
8539;DHT22;4307;53.868;11.680;2024-02-26T01:21:56;2.00;99.90
8539;DHT22;4307;53.868;11.680;2024-02-26T01:24:23;2.00;99.90
8539;DHT22;4307;53.868;11.680;2024-02-26T01:26:51;2.00;99.90
8539;DHT22;4307;53.868;11.680;2024-02-26T01:29:18;2.00;99.90
8539;DHT22;4307;53.868;11.680;2024-02-26T01:31:44;1.90;99.90
8539;DHT22;4307;53.868;11.680;2024-02-26T01:34:11;1.90;99.90
8539;DHT22;4307;53.868;11.680;2024-02-26T01:36:38;1.80;99.90
8539;DHT22;4307;53.868;11.680;2024-02-26T01:39:04;1.80;99.90
8539;DHT22;4307;53.868;11.680;2024-02-26T01:41:31;1.80;99.90
8539;DHT22;4307;53.868;11.680;2024-02-26T01:43:59;1.80;99.90
8539;DHT22;4307;53.868;11.680;2024-02-26T01:46:26;1.70;99.90
8539;DHT22;4307;53.868;11.680;2024-02-26T01:48:52;1.70;99.90
8539;DHT22;4307;53.868;11.680;2024-02-26T01:51:19;1.70;99.90
8539;DHT22;4307;53.868;11.680;2024-02-26T01:53:46;1.70;99.90
8539;DHT22;4307;53.868;11.680;2024-02-26T01:56:15;1.70;99.90
8539;DHT22;4307;53.868;11.680;2024-02-26T01:58:43;1.70;99.90
8539;DHT22;4307;53.868;11.680;2024-02-26T02:01:12;1.60;99.90
8539;DHT22;4307;53.868;11.680;2024-02-26T02:03:39;1.60;99.90
8539;DHT22;4307;53.868;11.680;2024-02-26T02:06:07;1.60;99.90
8539;DHT22;4307;53.868;11.680;2024-02-26T02:08:34;1.60;99.90
8539;DHT22;4307;53.868;11.680;2024-02-26T02:11:01;1.60;99.90
8539;DHT22;4307;53.868;11.680;2024-02-26T02:13:28;1.50;99.90
8539;DHT22;4307;53.868;11.680;2024-02-26T02:15:55;1.50;99.90
8539;DHT22;4307;53.868;11.680;2024-02-26T02:18:23;1.50;99.90
8539;DHT22;4307;53.868;11.680;2024-02-26T02:20:51;1.50;99.90
8539;DHT22;4307;53.868;11.680;2024-02-26T02:23:21;1.50;99.90
8539;DHT22;4307;53.868;11.680;2024-02-26T02:25:48;1.50;99.90
8539;DHT22;4307;53.868;11.680;2024-02-26T02:28:14;1.40;99.90
8539;DHT22;4307;53.868;11.680;2024-02-26T02:30:41;1.40;99.90
8539;DHT22;4307;53.868;11.680;2024-02-26T02:33:08;1.40;99.90
8539;DHT22;4307;53.868;11.680;2024-02-26T02:35:37;1.40;99.90
8539;DHT22;4307;53.868;11.680;2024-02-26T02:38:05;1.30;99.90
8539;DHT22;4307;53.868;11.680;2024-02-26T02:40:32;1.30;99.90
8539;DHT22;4307;53.868;11.680;2024-02-26T02:42:58;1.30;99.90
8539;DHT22;4307;53.868;11.680;2024-02-26T02:45:27;1.30;99.90
8539;DHT22;4307;53.868;11.680;2024-02-26T02:47:53;1.30;99.90
8539;DHT22;4307;53.868;11.680;2024-02-26T02:50:20;1.30;99.90
8539;DHT22;4307;53.868;11.680;2024-02-26T02:52:47;1.30;99.90
8539;DHT22;4307;53.868;11.680;2024-02-26T02:55:16;1.20;99.90
8539;DHT22;4307;53.868;11.680;2024-02-26T02:57:43;1.20;99.90
8539;DHT22;4307;53.868;11.680;2024-02-26T03:00:11;1.20;99.90
8539;DHT22;4307;53.868;11.680;2024-02-26T03:02:38;1.10;99.90
8539;DHT22;4307;53.868;11.680;2024-02-26T03:05:05;1.10;99.90
8539;DHT22;4307;53.868;11.680;2024-02-26T03:07:32;1.10;99.90
8539;DHT22;4307;53.868;11.680;2024-02-26T03:09:58;1.10;99.90
8539;DHT22;4307;53.868;11.680;2024-02-26T03:12:26;1.10;99.90
8539;DHT22;4307;53.868;11.680;2024-02-26T03:14:54;1.10;99.90
8539;DHT22;4307;53.868;11.680;2024-02-26T03:17:20;1.00;99.90
8539;DHT22;4307;53.868;11.680;2024-02-26T03:19:49;1.10;99.90
8539;DHT22;4307;53.868;11.680;2024-02-26T03:22:18;1.00;99.90
8539;DHT22;4307;53.868;11.680;2024-02-26T03:24:45;1.00;99.90
8539;DHT22;4307;53.868;11.680;2024-02-26T03:27:12;1.00;99.90
8539;DHT22;4307;53.868;11.680;2024-02-26T03:29:40;0.90;99.90
8539;DHT22;4307;53.868;11.680;2024-02-26T03:32:06;0.90;99.90
8539;DHT22;4307;53.868;11.680;2024-02-26T03:34:33;0.90;99.90
8539;DHT22;4307;53.868;11.680;2024-02-26T03:37:00;0.90;99.90
8539;DHT22;4307;53.868;11.680;2024-02-26T03:39:27;0.90;99.90
8539;DHT22;4307;53.868;11.680;2024-02-26T03:41:54;0.90;99.90
8539;DHT22;4307;53.868;11.680;2024-02-26T03:44:21;0.90;99.90
8539;DHT22;4307;53.868;11.680;2024-02-26T03:46:49;0.90;99.90
8539;DHT22;4307;53.868;11.680;2024-02-26T03:49:15;0.90;99.90
8539;DHT22;4307;53.868;11.680;2024-02-26T03:51:43;0.90;99.90
8539;DHT22;4307;53.868;11.680;2024-02-26T03:54:10;0.90;99.90
8539;DHT22;4307;53.868;11.680;2024-02-26T03:56:36;0.90;99.90
8539;DHT22;4307;53.868;11.680;2024-02-26T03:59:03;0.90;99.90
8539;DHT22;4307;53.868;11.680;2024-02-26T04:01:30;0.90;99.90
8539;DHT22;4307;53.868;11.680;2024-02-26T04:03:58;0.90;99.90
8539;DHT22;4307;53.868;11.680;2024-02-26T04:06:24;0.80;99.90
8539;DHT22;4307;53.868;11.680;2024-02-26T04:08:51;0.80;99.90
8539;DHT22;4307;53.868;11.680;2024-02-26T04:11:18;0.80;99.90
8539;DHT22;4307;53.868;11.680;2024-02-26T04:13:45;0.80;99.90
8539;DHT22;4307;53.868;11.680;2024-02-26T04:16:14;0.70;99.90
8539;DHT22;4307;53.868;11.680;2024-02-26T04:18:41;0.70;99.90
8539;DHT22;4307;53.868;11.680;2024-02-26T04:21:09;0.70;99.90
8539;DHT22;4307;53.868;11.680;2024-02-26T04:23:36;0.70;99.90
8539;DHT22;4307;53.868;11.680;2024-02-26T04:26:04;0.70;99.90
8539;DHT22;4307;53.868;11.680;2024-02-26T04:28:31;0.60;99.90
8539;DHT22;4307;53.868;11.680;2024-02-26T04:30:58;0.70;99.90
8539;DHT22;4307;53.868;11.680;2024-02-26T04:33:24;0.60;99.90
8539;DHT22;4307;53.868;11.680;2024-02-26T04:35:54;0.60;99.90
8539;DHT22;4307;53.868;11.680;2024-02-26T04:38:22;0.60;99.90
8539;DHT22;4307;53.868;11.680;2024-02-26T04:40:48;0.60;99.90
8539;DHT22;4307;53.868;11.680;2024-02-26T04:43:15;0.60;99.90
8539;DHT22;4307;53.868;11.680;2024-02-26T04:45:43;0.60;99.90
8539;DHT22;4307;53.868;11.680;2024-02-26T04:48:10;0.50;99.90
8539;DHT22;4307;53.868;11.680;2024-02-26T04:50:36;0.60;99.90
8539;DHT22;4307;53.868;11.680;2024-02-26T04:53:03;0.50;99.90
8539;DHT22;4307;53.868;11.680;2024-02-26T04:55:31;0.50;99.90
8539;DHT22;4307;53.868;11.680;2024-02-26T04:57:58;0.50;99.90
8539;DHT22;4307;53.868;11.680;2024-02-26T05:00:25;0.50;99.90
8539;DHT22;4307;53.868;11.680;2024-02-26T05:02:52;0.60;99.90
8539;DHT22;4307;53.868;11.680;2024-02-26T05:05:19;0.50;99.90
8539;DHT22;4307;53.868;11.680;2024-02-26T05:07:45;0.60;99.90
8539;DHT22;4307;53.868;11.680;2024-02-26T05:10:12;0.60;99.90
8539;DHT22;4307;53.868;11.680;2024-02-26T05:12:40;0.50;99.90
8539;DHT22;4307;53.868;11.680;2024-02-26T05:15:09;0.50;99.90
8539;DHT22;4307;53.868;11.680;2024-02-26T05:17:35;0.50;99.90
8539;DHT22;4307;53.868;11.680;2024-02-26T05:20:02;0.50;99.90
8539;DHT22;4307;53.868;11.680;2024-02-26T05:22:29;0.50;99.90
8539;DHT22;4307;53.868;11.680;2024-02-26T05:24:56;0.50;99.90
8539;DHT22;4307;53.868;11.680;2024-02-26T05:27:23;0.50;99.90
8539;DHT22;4307;53.868;11.680;2024-02-26T05:29:51;0.40;99.90
8539;DHT22;4307;53.868;11.680;2024-02-26T05:32:19;0.50;99.90
8539;DHT22;4307;53.868;11.680;2024-02-26T05:34:46;0.30;99.90
8539;DHT22;4307;53.868;11.680;2024-02-26T05:37:12;0.30;99.90
8539;DHT22;4307;53.868;11.680;2024-02-26T05:39:39;0.30;99.90
8539;DHT22;4307;53.868;11.680;2024-02-26T05:42:06;0.30;99.90
8539;DHT22;4307;53.868;11.680;2024-02-26T05:44:34;0.30;99.90
8539;DHT22;4307;53.868;11.680;2024-02-26T05:47:02;0.30;99.90
8539;DHT22;4307;53.868;11.680;2024-02-26T05:49:29;0.30;99.90
8539;DHT22;4307;53.868;11.680;2024-02-26T05:51:55;0.30;99.90
8539;DHT22;4307;53.868;11.680;2024-02-26T05:54:22;0.30;99.90
8539;DHT22;4307;53.868;11.680;2024-02-26T05:56:48;0.30;99.90
8539;DHT22;4307;53.868;11.680;2024-02-26T05:59:15;0.30;99.90
8539;DHT22;4307;53.868;11.680;2024-02-26T06:01:42;0.30;99.90
8539;DHT22;4307;53.868;11.680;2024-02-26T06:04:10;0.30;99.90
8539;DHT22;4307;53.868;11.680;2024-02-26T06:06:37;0.30;99.90
8539;DHT22;4307;53.868;11.680;2024-02-26T06:09:04;0.30;99.90
8539;DHT22;4307;53.868;11.680;2024-02-26T06:11:31;0.30;99.90
8539;DHT22;4307;53.868;11.680;2024-02-26T06:13:58;0.40;99.90
8539;DHT22;4307;53.868;11.680;2024-02-26T06:16:25;0.40;99.90
8539;DHT22;4307;53.868;11.680;2024-02-26T06:18:51;0.40;99.90
8539;DHT22;4307;53.868;11.680;2024-02-26T06:21:19;0.40;99.90
8539;DHT22;4307;53.868;11.680;2024-02-26T06:23:46;0.40;99.90
8539;DHT22;4307;53.868;11.680;2024-02-26T06:26:12;0.50;99.90
8539;DHT22;4307;53.868;11.680;2024-02-26T06:28:39;0.50;99.90
8539;DHT22;4307;53.868;11.680;2024-02-26T06:31:06;0.50;99.90
8539;DHT22;4307;53.868;11.680;2024-02-26T06:33:33;0.50;99.90
8539;DHT22;4307;53.868;11.680;2024-02-26T06:35:59;0.60;99.90
8539;DHT22;4307;53.868;11.680;2024-02-26T06:38:27;0.60;99.90
8539;DHT22;4307;53.868;11.680;2024-02-26T06:40:54;0.60;99.90
8539;DHT22;4307;53.868;11.680;2024-02-26T06:43:21;0.70;99.90
8539;DHT22;4307;53.868;11.680;2024-02-26T06:45:47;0.70;99.90
8539;DHT22;4307;53.868;11.680;2024-02-26T06:48:14;0.70;99.90
8539;DHT22;4307;53.868;11.680;2024-02-26T06:50:41;0.80;99.90
8539;DHT22;4307;53.868;11.680;2024-02-26T06:53:07;0.80;99.90
8539;DHT22;4307;53.868;11.680;2024-02-26T06:55:35;0.80;99.90
8539;DHT22;4307;53.868;11.680;2024-02-26T06:58:05;0.90;99.90
8539;DHT22;4307;53.868;11.680;2024-02-26T07:00:32;0.90;99.90
8539;DHT22;4307;53.868;11.680;2024-02-26T07:02:58;1.00;99.90
8539;DHT22;4307;53.868;11.680;2024-02-26T07:05:25;1.00;99.90
8539;DHT22;4307;53.868;11.680;2024-02-26T07:07:52;1.10;99.90
8539;DHT22;4307;53.868;11.680;2024-02-26T07:10:18;1.20;99.90
8539;DHT22;4307;53.868;11.680;2024-02-26T07:12:46;1.30;99.90
8539;DHT22;4307;53.868;11.680;2024-02-26T07:15:14;1.20;99.90
8539;DHT22;4307;53.868;11.680;2024-02-26T07:17:41;1.30;99.90
8539;DHT22;4307;53.868;11.680;2024-02-26T07:20:12;1.30;99.90
8539;DHT22;4307;53.868;11.680;2024-02-26T07:22:39;1.40;99.90
8539;DHT22;4307;53.868;11.680;2024-02-26T07:25:05;1.40;99.90
8539;DHT22;4307;53.868;11.680;2024-02-26T07:27:33;1.50;99.90
8539;DHT22;4307;53.868;11.680;2024-02-26T07:30:01;1.60;99.90
8539;DHT22;4307;53.868;11.680;2024-02-26T07:32:28;1.70;99.90
8539;DHT22;4307;53.868;11.680;2024-02-26T07:34:54;1.70;99.90
8539;DHT22;4307;53.868;11.680;2024-02-26T07:37:21;1.80;99.90
8539;DHT22;4307;53.868;11.680;2024-02-26T07:39:48;1.90;99.90
8539;DHT22;4307;53.868;11.680;2024-02-26T07:42:14;2.00;99.90
8539;DHT22;4307;53.868;11.680;2024-02-26T07:44:41;2.00;99.90
8539;DHT22;4307;53.868;11.680;2024-02-26T07:47:09;2.10;99.90
8539;DHT22;4307;53.868;11.680;2024-02-26T07:49:36;2.20;99.90
8539;DHT22;4307;53.868;11.680;2024-02-26T07:52:03;2.20;99.90
8539;DHT22;4307;53.868;11.680;2024-02-26T07:54:30;2.30;99.90
8539;DHT22;4307;53.868;11.680;2024-02-26T07:56:56;2.40;99.90
8539;DHT22;4307;53.868;11.680;2024-02-26T07:59:23;2.50;99.90
8539;DHT22;4307;53.868;11.680;2024-02-26T08:01:50;2.50;99.90
8539;DHT22;4307;53.868;11.680;2024-02-26T08:04:18;2.60;99.90
8539;DHT22;4307;53.868;11.680;2024-02-26T08:06:45;2.70;99.90
8539;DHT22;4307;53.868;11.680;2024-02-26T08:09:11;2.90;99.90
8539;DHT22;4307;53.868;11.680;2024-02-26T08:11:39;3.00;99.90
8539;DHT22;4307;53.868;11.680;2024-02-26T08:14:05;3.10;99.90
8539;DHT22;4307;53.868;11.680;2024-02-26T08:16:32;3.20;99.90
8539;DHT22;4307;53.868;11.680;2024-02-26T08:18:58;3.30;99.90
8539;DHT22;4307;53.868;11.680;2024-02-26T08:21:26;3.40;99.90
8539;DHT22;4307;53.868;11.680;2024-02-26T08:23:53;3.50;99.90
8539;DHT22;4307;53.868;11.680;2024-02-26T08:26:20;3.60;99.90
8539;DHT22;4307;53.868;11.680;2024-02-26T08:28:47;3.80;99.90
8539;DHT22;4307;53.868;11.680;2024-02-26T08:31:16;3.90;99.90
8539;DHT22;4307;53.868;11.680;2024-02-26T08:33:43;4.00;99.90
8539;DHT22;4307;53.868;11.680;2024-02-26T08:36:11;4.20;99.90
8539;DHT22;4307;53.868;11.680;2024-02-26T08:38:39;4.40;99.90
8539;DHT22;4307;53.868;11.680;2024-02-26T08:41:06;4.50;99.90
8539;DHT22;4307;53.868;11.680;2024-02-26T08:43:32;4.80;99.90
8539;DHT22;4307;53.868;11.680;2024-02-26T08:45:59;5.00;99.90
8539;DHT22;4307;53.868;11.680;2024-02-26T08:48:26;5.30;99.90
8539;DHT22;4307;53.868;11.680;2024-02-26T08:50:52;5.60;99.90
8539;DHT22;4307;53.868;11.680;2024-02-26T08:53:20;5.90;99.90
8539;DHT22;4307;53.868;11.680;2024-02-26T08:55:48;6.30;99.90
8539;DHT22;4307;53.868;11.680;2024-02-26T08:58:15;6.70;99.90
8539;DHT22;4307;53.868;11.680;2024-02-26T09:00:41;7.00;99.90
8539;DHT22;4307;53.868;11.680;2024-02-26T09:03:08;7.40;99.90
8539;DHT22;4307;53.868;11.680;2024-02-26T09:05:34;7.70;99.90
8539;DHT22;4307;53.868;11.680;2024-02-26T09:08:01;8.00;99.90
8539;DHT22;4307;53.868;11.680;2024-02-26T09:10:28;8.20;99.90
8539;DHT22;4307;53.868;11.680;2024-02-26T09:12:56;8.50;99.90
8539;DHT22;4307;53.868;11.680;2024-02-26T09:15:22;8.70;99.90
8539;DHT22;4307;53.868;11.680;2024-02-26T09:17:49;9.00;99.90
8539;DHT22;4307;53.868;11.680;2024-02-26T09:20:17;9.30;99.90
8539;DHT22;4307;53.868;11.680;2024-02-26T09:22:45;9.60;99.90
8539;DHT22;4307;53.868;11.680;2024-02-26T09:25:12;9.90;99.90
8539;DHT22;4307;53.868;11.680;2024-02-26T09:27:38;10.10;99.90
8539;DHT22;4307;53.868;11.680;2024-02-26T09:30:07;10.30;99.90
8539;DHT22;4307;53.868;11.680;2024-02-26T09:32:34;10.50;99.90
8539;DHT22;4307;53.868;11.680;2024-02-26T09:35:01;10.60;99.90
8539;DHT22;4307;53.868;11.680;2024-02-26T09:37:28;10.80;99.90
8539;DHT22;4307;53.868;11.680;2024-02-26T09:39:55;10.80;99.90
8539;DHT22;4307;53.868;11.680;2024-02-26T09:42:25;10.90;99.90
8539;DHT22;4307;53.868;11.680;2024-02-26T09:44:54;10.90;99.90
8539;DHT22;4307;53.868;11.680;2024-02-26T09:47:23;11.00;99.90
8539;DHT22;4307;53.868;11.680;2024-02-26T09:49:53;11.00;99.90
8539;DHT22;4307;53.868;11.680;2024-02-26T09:52:21;11.00;99.90
8539;DHT22;4307;53.868;11.680;2024-02-26T09:54:49;11.00;99.90
8539;DHT22;4307;53.868;11.680;2024-02-26T09:57:17;11.00;99.90
8539;DHT22;4307;53.868;11.680;2024-02-26T09:59:44;11.00;99.90
8539;DHT22;4307;53.868;11.680;2024-02-26T10:02:13;11.00;99.90
8539;DHT22;4307;53.868;11.680;2024-02-26T10:04:42;11.00;99.90
8539;DHT22;4307;53.868;11.680;2024-02-26T10:07:10;10.90;99.90
8539;DHT22;4307;53.868;11.680;2024-02-26T10:09:37;11.00;99.90
8539;DHT22;4307;53.868;11.680;2024-02-26T10:12:04;11.00;99.90
8539;DHT22;4307;53.868;11.680;2024-02-26T10:14:31;11.00;99.90
8539;DHT22;4307;53.868;11.680;2024-02-26T10:16:58;11.00;99.90
8539;DHT22;4307;53.868;11.680;2024-02-26T10:19:27;10.90;99.90
8539;DHT22;4307;53.868;11.680;2024-02-26T10:21:58;10.90;99.90
8539;DHT22;4307;53.868;11.680;2024-02-26T10:24:25;10.90;99.90
8539;DHT22;4307;53.868;11.680;2024-02-26T10:26:52;10.90;99.90
8539;DHT22;4307;53.868;11.680;2024-02-26T10:29:19;10.90;99.90
8539;DHT22;4307;53.868;11.680;2024-02-26T10:31:46;10.80;99.90
8539;DHT22;4307;53.868;11.680;2024-02-26T10:34:15;10.80;99.90
8539;DHT22;4307;53.868;11.680;2024-02-26T10:36:41;10.80;99.90
8539;DHT22;4307;53.868;11.680;2024-02-26T10:39:12;10.80;99.90
8539;DHT22;4307;53.868;11.680;2024-02-26T10:41:40;10.80;99.90
8539;DHT22;4307;53.868;11.680;2024-02-26T10:44:08;10.80;99.90
8539;DHT22;4307;53.868;11.680;2024-02-26T10:46:36;10.80;99.90
8539;DHT22;4307;53.868;11.680;2024-02-26T10:49:04;10.70;99.90
8539;DHT22;4307;53.868;11.680;2024-02-26T10:51:31;10.70;99.90
8539;DHT22;4307;53.868;11.680;2024-02-26T10:54:01;10.60;99.90
8539;DHT22;4307;53.868;11.680;2024-02-26T10:56:33;10.50;99.90
8539;DHT22;4307;53.868;11.680;2024-02-26T10:59:00;10.40;99.90
8539;DHT22;4307;53.868;11.680;2024-02-26T11:01:29;10.40;99.90
8539;DHT22;4307;53.868;11.680;2024-02-26T11:03:57;10.40;99.90
8539;DHT22;4307;53.868;11.680;2024-02-26T11:06:26;10.30;99.90
8539;DHT22;4307;53.868;11.680;2024-02-26T11:08:53;10.30;99.90
8539;DHT22;4307;53.868;11.680;2024-02-26T11:11:20;10.30;99.90
8539;DHT22;4307;53.868;11.680;2024-02-26T11:13:50;10.20;99.90
8539;DHT22;4307;53.868;11.680;2024-02-26T11:16:18;10.20;99.90
8539;DHT22;4307;53.868;11.680;2024-02-26T11:18:46;10.10;99.90
8539;DHT22;4307;53.868;11.680;2024-02-26T11:21:15;10.10;99.90
8539;DHT22;4307;53.868;11.680;2024-02-26T11:23:42;10.00;99.90
8539;DHT22;4307;53.868;11.680;2024-02-26T11:26:10;10.00;99.90
8539;DHT22;4307;53.868;11.680;2024-02-26T11:28:38;10.00;99.90
8539;DHT22;4307;53.868;11.680;2024-02-26T11:31:06;10.10;99.90
8539;DHT22;4307;53.868;11.680;2024-02-26T11:33:34;10.20;99.90
8539;DHT22;4307;53.868;11.680;2024-02-26T11:36:02;10.40;99.90
8539;DHT22;4307;53.868;11.680;2024-02-26T11:38:29;10.50;99.90
8539;DHT22;4307;53.868;11.680;2024-02-26T11:40:56;10.50;99.90
8539;DHT22;4307;53.868;11.680;2024-02-26T11:43:49;10.60;99.90
8539;DHT22;4307;53.868;11.680;2024-02-26T11:46:26;10.70;99.90
8539;DHT22;4307;53.868;11.680;2024-02-26T11:48:55;10.70;99.90
8539;DHT22;4307;53.868;11.680;2024-02-26T11:51:25;10.80;99.90
8539;DHT22;4307;53.868;11.680;2024-02-26T11:53:52;10.90;99.90
8539;DHT22;4307;53.868;11.680;2024-02-26T11:56:23;11.00;99.90
8539;DHT22;4307;53.868;11.680;2024-02-26T11:58:56;11.00;99.90
8539;DHT22;4307;53.868;11.680;2024-02-26T12:01:41;11.10;99.90
8539;DHT22;4307;53.868;11.680;2024-02-26T12:04:11;11.20;99.90
8539;DHT22;4307;53.868;11.680;2024-02-26T12:06:43;11.20;99.90
8539;DHT22;4307;53.868;11.680;2024-02-26T12:09:11;11.30;99.90
8539;DHT22;4307;53.868;11.680;2024-02-26T12:11:39;11.40;99.90
8539;DHT22;4307;53.868;11.680;2024-02-26T12:14:07;11.40;99.90
8539;DHT22;4307;53.868;11.680;2024-02-26T12:16:39;11.40;99.90
8539;DHT22;4307;53.868;11.680;2024-02-26T12:19:09;11.50;99.90
8539;DHT22;4307;53.868;11.680;2024-02-26T12:21:37;11.50;99.90
8539;DHT22;4307;53.868;11.680;2024-02-26T12:24:10;11.50;99.90
8539;DHT22;4307;53.868;11.680;2024-02-26T12:26:36;11.50;99.90
8539;DHT22;4307;53.868;11.680;2024-02-26T12:29:03;11.50;99.90
8539;DHT22;4307;53.868;11.680;2024-02-26T12:31:30;11.50;99.90
8539;DHT22;4307;53.868;11.680;2024-02-26T12:33:59;11.50;99.90
8539;DHT22;4307;53.868;11.680;2024-02-26T12:36:25;11.50;99.90
8539;DHT22;4307;53.868;11.680;2024-02-26T12:38:52;11.50;99.90
8539;DHT22;4307;53.868;11.680;2024-02-26T12:41:20;11.40;99.90
8539;DHT22;4307;53.868;11.680;2024-02-26T12:43:46;11.40;99.90
8539;DHT22;4307;53.868;11.680;2024-02-26T12:46:13;11.40;99.90
8539;DHT22;4307;53.868;11.680;2024-02-26T12:48:42;11.40;99.90
8539;DHT22;4307;53.868;11.680;2024-02-26T12:51:11;11.30;99.90
8539;DHT22;4307;53.868;11.680;2024-02-26T12:53:38;11.20;99.90
8539;DHT22;4307;53.868;11.680;2024-02-26T12:56:06;11.20;99.90
8539;DHT22;4307;53.868;11.680;2024-02-26T12:58:34;11.00;99.90
8539;DHT22;4307;53.868;11.680;2024-02-26T13:01:03;10.90;99.90
8539;DHT22;4307;53.868;11.680;2024-02-26T13:03:31;10.90;99.90
8539;DHT22;4307;53.868;11.680;2024-02-26T13:05:58;10.80;99.90
8539;DHT22;4307;53.868;11.680;2024-02-26T13:08:26;10.80;99.90
8539;DHT22;4307;53.868;11.680;2024-02-26T13:10:53;10.80;99.90
8539;DHT22;4307;53.868;11.680;2024-02-26T13:13:19;10.70;99.90
8539;DHT22;4307;53.868;11.680;2024-02-26T13:15:48;10.70;99.90
8539;DHT22;4307;53.868;11.680;2024-02-26T13:18:15;10.80;99.90
8539;DHT22;4307;53.868;11.680;2024-02-26T13:20:42;10.80;99.90
8539;DHT22;4307;53.868;11.680;2024-02-26T13:23:11;10.80;99.90
8539;DHT22;4307;53.868;11.680;2024-02-26T13:25:39;10.80;99.90
8539;DHT22;4307;53.868;11.680;2024-02-26T13:28:14;10.90;99.90
8539;DHT22;4307;53.868;11.680;2024-02-26T13:30:41;10.90;99.90
8539;DHT22;4307;53.868;11.680;2024-02-26T13:33:09;10.90;99.90
8539;DHT22;4307;53.868;11.680;2024-02-26T13:35:35;11.00;99.90
8539;DHT22;4307;53.868;11.680;2024-02-26T13:38:04;11.00;99.90
8539;DHT22;4307;53.868;11.680;2024-02-26T13:40:32;11.00;99.90
8539;DHT22;4307;53.868;11.680;2024-02-26T13:43:00;11.00;99.90
8539;DHT22;4307;53.868;11.680;2024-02-26T13:45:27;11.00;99.90
8539;DHT22;4307;53.868;11.680;2024-02-26T13:47:54;11.10;99.90
8539;DHT22;4307;53.868;11.680;2024-02-26T13:50:20;11.10;99.90
8539;DHT22;4307;53.868;11.680;2024-02-26T13:52:48;11.20;99.90
8539;DHT22;4307;53.868;11.680;2024-02-26T13:55:19;11.20;99.90
8539;DHT22;4307;53.868;11.680;2024-02-26T13:57:46;11.40;99.90
8539;DHT22;4307;53.868;11.680;2024-02-26T14:00:15;11.50;99.90
8539;DHT22;4307;53.868;11.680;2024-02-26T14:02:41;11.70;99.90
8539;DHT22;4307;53.868;11.680;2024-02-26T14:05:08;11.80;99.90
8539;DHT22;4307;53.868;11.680;2024-02-26T14:07:35;11.70;99.90
8539;DHT22;4307;53.868;11.680;2024-02-26T14:10:02;11.70;99.90
8539;DHT22;4307;53.868;11.680;2024-02-26T14:12:29;11.80;99.90
8539;DHT22;4307;53.868;11.680;2024-02-26T14:14:55;11.80;99.90
8539;DHT22;4307;53.868;11.680;2024-02-26T14:17:25;12.00;99.90
8539;DHT22;4307;53.868;11.680;2024-02-26T14:19:52;12.10;99.90
8539;DHT22;4307;53.868;11.680;2024-02-26T14:22:19;12.30;99.90
8539;DHT22;4307;53.868;11.680;2024-02-26T14:24:46;12.60;99.90
8539;DHT22;4307;53.868;11.680;2024-02-26T14:27:13;12.80;99.90
8539;DHT22;4307;53.868;11.680;2024-02-26T14:29:41;12.90;99.90
8539;DHT22;4307;53.868;11.680;2024-02-26T14:32:08;12.90;99.90
8539;DHT22;4307;53.868;11.680;2024-02-26T14:34:36;13.00;99.90
8539;DHT22;4307;53.868;11.680;2024-02-26T14:37:03;13.00;99.90
8539;DHT22;4307;53.868;11.680;2024-02-26T14:39:31;12.90;99.90
8539;DHT22;4307;53.868;11.680;2024-02-26T14:41:57;12.90;99.90
8539;DHT22;4307;53.868;11.680;2024-02-26T14:44:24;12.80;99.90
8539;DHT22;4307;53.868;11.680;2024-02-26T14:46:51;12.60;99.90
8539;DHT22;4307;53.868;11.680;2024-02-26T14:49:18;12.50;99.90
8539;DHT22;4307;53.868;11.680;2024-02-26T14:51:46;12.30;99.90
8539;DHT22;4307;53.868;11.680;2024-02-26T14:54:13;12.00;99.90
8539;DHT22;4307;53.868;11.680;2024-02-26T14:56:40;11.70;99.90
8539;DHT22;4307;53.868;11.680;2024-02-26T14:59:07;11.40;99.90
8539;DHT22;4307;53.868;11.680;2024-02-26T15:01:34;11.30;99.90
8539;DHT22;4307;53.868;11.680;2024-02-26T15:04:00;11.20;99.90
8539;DHT22;4307;53.868;11.680;2024-02-26T15:06:27;11.00;99.90
8539;DHT22;4307;53.868;11.680;2024-02-26T15:08:55;10.90;99.90
8539;DHT22;4307;53.868;11.680;2024-02-26T15:11:22;10.80;99.90
8539;DHT22;4307;53.868;11.680;2024-02-26T15:13:49;10.70;99.90
8539;DHT22;4307;53.868;11.680;2024-02-26T15:16:19;10.60;99.90
8539;DHT22;4307;53.868;11.680;2024-02-26T15:18:46;10.50;99.90
8539;DHT22;4307;53.868;11.680;2024-02-26T15:21:12;10.50;99.90
8539;DHT22;4307;53.868;11.680;2024-02-26T15:23:42;10.50;99.90
8539;DHT22;4307;53.868;11.680;2024-02-26T15:26:11;10.40;99.90
8539;DHT22;4307;53.868;11.680;2024-02-26T15:28:38;10.30;99.90
8539;DHT22;4307;53.868;11.680;2024-02-26T15:31:06;10.20;99.90
8539;DHT22;4307;53.868;11.680;2024-02-26T15:33:33;10.10;99.90
8539;DHT22;4307;53.868;11.680;2024-02-26T15:36:00;10.10;99.90
8539;DHT22;4307;53.868;11.680;2024-02-26T15:38:27;10.00;99.90
8539;DHT22;4307;53.868;11.680;2024-02-26T15:40:54;9.90;99.90
8539;DHT22;4307;53.868;11.680;2024-02-26T15:43:22;9.90;99.90
8539;DHT22;4307;53.868;11.680;2024-02-26T15:45:48;9.80;99.90
8539;DHT22;4307;53.868;11.680;2024-02-26T15:48:15;9.70;99.90
8539;DHT22;4307;53.868;11.680;2024-02-26T15:50:42;9.60;99.90
8539;DHT22;4307;53.868;11.680;2024-02-26T15:53:09;9.60;99.90
8539;DHT22;4307;53.868;11.680;2024-02-26T15:55:36;9.50;99.90